Time;durP1;ratioP1;P1;durP2;ratioP2;P2;SDS_P1;SDS_P2;PMS_P1;PMS_P2;Temp;Humidity;BMP_temperature;BMP_pressure;BME280_temperature;BME280_humidity;BME280_pressure;Samples;Min_cycle;Max_cycle;Signal;HPM_P1;HPM_P2
2023/04/13 00:00:28;;;;;;;11.10;7.30;;;5.40;99.90;;;;;;4919259;29;20774;-60
2023/04/13 00:02:57;;;;;;;11.07;7.20;;;5.40;99.90;;;;;;4919580;29;20241;-60
2023/04/13 00:05:25;;;;;;;9.90;7.53;;;5.40;99.90;;;;;;4919501;29;20228;-60
2023/04/13 00:07:54;;;;;;;9.50;6.60;;;5.40;99.90;;;;;;4919741;29;20711;-60
2023/04/13 00:10:24;;;;;;;13.13;7.37;;;5.40;99.90;;;;;;4921613;29;20232;-60
2023/04/13 00:12:52;;;;;;;9.90;7.13;;;5.40;99.90;;;;;;4920735;29;20229;-59
2023/04/13 00:15:21;;;;;;;10.80;7.20;;;5.40;99.90;;;;;;4919295;29;20229;-59
2023/04/13 00:17:50;;;;;;;14.03;8.20;;;5.40;99.90;;;;;;4919652;29;20224;-60
2023/04/13 00:20:18;;;;;;;13.30;8.07;;;5.30;99.90;;;;;;4919270;29;20264;-60
2023/04/13 00:22:47;;;;;;;14.00;9.00;;;5.30;99.90;;;;;;4919392;29;20237;-60
2023/04/13 00:25:17;;;;;;;12.33;7.90;;;5.30;99.90;;;;;;4919245;29;20255;-60
2023/04/13 00:27:45;;;;;;;11.70;8.13;;;5.30;99.90;;;;;;4919213;29;20229;-60
2023/04/13 00:30:15;;;;;;;12.87;8.50;;;5.30;99.90;;;;;;4918593;29;20223;-60
2023/04/13 00:32:45;;;;;;;13.07;7.97;;;5.30;99.90;;;;;;4916688;29;20483;-59
2023/04/13 00:35:17;;;;;;;13.40;8.00;;;5.30;99.90;;;;;;4919091;29;20228;-60
2023/04/13 00:37:47;;;;;;;10.90;8.40;;;5.30;99.90;;;;;;4918679;29;20229;-59
2023/04/13 00:40:16;;;;;;;12.30;7.87;;;5.30;99.90;;;;;;4917775;29;20236;-60
2023/04/13 00:42:45;;;;;;;13.13;7.67;;;5.30;99.90;;;;;;4918763;29;20225;-59
2023/04/13 00:45:14;;;;;;;13.27;8.47;;;5.30;99.90;;;;;;4918945;29;20569;-60
2023/04/13 00:47:45;;;;;;;15.30;8.70;;;5.30;99.90;;;;;;4917597;29;20224;-59
2023/04/13 00:50:16;;;;;;;12.07;8.17;;;5.20;99.90;;;;;;4933481;29;20260;-59
2023/04/13 00:52:46;;;;;;;14.43;8.27;;;5.30;99.90;;;;;;4919093;29;20236;-60
2023/04/13 00:55:19;;;;;;;13.33;8.67;;;5.30;99.90;;;;;;4918757;29;20459;-59
2023/04/13 00:57:48;;;;;;;12.17;8.57;;;5.30;99.90;;;;;;4918569;29;20727;-59
2023/04/13 01:00:18;;;;;;;13.90;8.60;;;5.20;99.90;;;;;;4918632;29;20268;-60
2023/04/13 01:02:51;;;;;;;18.30;9.03;;;5.20;99.90;;;;;;4918416;29;20319;-60
2023/04/13 01:05:20;;;;;;;12.87;8.00;;;5.20;99.90;;;;;;4948880;29;20235;-65
2023/04/13 01:07:59;;;;;;;12.97;8.13;;;5.20;99.90;;;;;;4930146;29;20286;-65
2023/04/13 01:10:31;;;;;;;15.33;8.53;;;5.10;99.90;;;;;;4935751;29;20275;-65
2023/04/13 01:13:09;;;;;;;11.30;7.97;;;5.20;99.90;;;;;;4932792;29;20236;-65
2023/04/13 01:15:46;;;;;;;9.67;7.37;;;5.10;99.90;;;;;;4948907;29;20238;-65
2023/04/13 01:18:18;;;;;;;11.17;8.53;;;5.10;99.90;;;;;;4935649;29;20242;-65
2023/04/13 01:20:49;;;;;;;12.43;7.53;;;5.10;99.90;;;;;;4951542;29;20682;-65
2023/04/13 01:23:27;;;;;;;11.53;7.90;;;5.00;99.90;;;;;;4936984;29;20236;-65
2023/04/13 01:25:59;;;;;;;11.97;8.27;;;5.00;99.90;;;;;;4935696;29;20235;-65
2023/04/13 01:28:30;;;;;;;15.07;7.83;;;5.00;99.90;;;;;;4935374;29;20695;-65
2023/04/13 01:31:00;;;;;;;13.30;8.40;;;5.00;99.90;;;;;;4936513;29;20246;-65
2023/04/13 01:33:32;;;;;;;14.53;8.57;;;5.00;99.90;;;;;;4936665;29;20739;-64
2023/04/13 01:36:03;;;;;;;12.23;8.67;;;4.90;99.90;;;;;;4935451;29;20714;-65
2023/04/13 01:38:31;;;;;;;11.93;7.97;;;4.90;99.90;;;;;;4951279;29;20258;-65
2023/04/13 01:41:01;;;;;;;10.97;8.07;;;4.90;99.90;;;;;;4950247;29;20325;-65
2023/04/13 01:43:33;;;;;;;12.03;8.43;;;4.80;99.90;;;;;;4953845;28;20711;-65
2023/04/13 01:46:12;;;;;;;13.07;8.40;;;4.80;99.90;;;;;;4916299;29;20259;-65
2023/04/13 01:48:57;;;;;;;10.77;8.13;;;4.80;99.90;;;;;;4932128;29;20232;-65
2023/04/13 01:51:45;;;;;;;11.63;8.00;;;4.70;99.90;;;;;;4934307;29;20235;-65
2023/04/13 01:54:20;;;;;;;10.53;7.77;;;4.70;99.90;;;;;;4931981;29;20239;-65
2023/04/13 01:56:50;;;;;;;14.13;8.50;;;4.70;99.90;;;;;;4931781;29;20236;-65
2023/04/13 01:59:21;;;;;;;13.10;7.60;;;4.70;99.90;;;;;;4931937;29;20255;-65
2023/04/13 02:01:49;;;;;;;11.63;8.00;;;4.70;99.90;;;;;;4932920;29;20496;-65
2023/04/13 02:04:18;;;;;;;12.00;7.80;;;4.70;99.90;;;;;;4945905;29;20240;-65
2023/04/13 02:06:50;;;;;;;14.77;8.67;;;4.70;99.90;;;;;;4934697;29;20247;-65
2023/04/13 02:09:24;;;;;;;11.97;7.67;;;4.70;99.90;;;;;;4934860;29;20263;-65
2023/04/13 02:11:54;;;;;;;12.10;7.90;;;4.60;99.90;;;;;;4939922;29;20326;-66
2023/04/13 02:14:24;;;;;;;11.33;8.07;;;4.60;99.90;;;;;;4921457;29;20470;-65
2023/04/13 02:16:53;;;;;;;12.43;8.43;;;4.60;99.90;;;;;;4950749;28;21043;-65
2023/04/13 02:19:21;;;;;;;13.47;8.40;;;4.60;99.90;;;;;;4936211;29;20479;-65
2023/04/13 02:21:49;;;;;;;13.23;8.70;;;4.60;99.90;;;;;;4935760;29;20509;-66
2023/04/13 02:24:18;;;;;;;12.30;8.23;;;4.60;99.90;;;;;;4934588;29;20459;-65
2023/04/13 02:26:46;;;;;;;12.20;8.47;;;4.60;99.90;;;;;;4934416;29;20500;-65
2023/04/13 02:29:15;;;;;;;12.67;8.90;;;4.60;99.90;;;;;;4934490;29;20510;-65
2023/04/13 02:31:47;;;;;;;14.27;9.10;;;4.60;99.90;;;;;;4935163;29;20484;-65
2023/04/13 02:34:15;;;;;;;12.60;9.10;;;4.60;99.90;;;;;;4935500;29;20480;-66
2023/04/13 02:36:45;;;;;;;14.60;9.27;;;4.60;99.90;;;;;;4917628;29;20989;-65
2023/04/13 02:39:13;;;;;;;11.07;8.70;;;4.50;99.90;;;;;;4915598;29;20528;-65
2023/04/13 02:41:41;;;;;;;13.70;9.23;;;4.60;99.90;;;;;;4932118;29;20546;-65
2023/04/13 02:44:14;;;;;;;13.60;9.77;;;4.50;99.90;;;;;;4936081;29;20501;-65
2023/04/13 02:46:51;;;;;;;12.87;9.63;;;4.50;99.90;;;;;;4934227;29;20891;-65
2023/04/13 02:49:19;;;;;;;16.37;9.63;;;4.50;99.90;;;;;;4935699;29;20547;-65
2023/04/13 02:52:09;;;;;;;14.87;8.93;;;4.60;99.90;;;;;;4934236;29;21014;-65
2023/04/13 02:54:53;;;;;;;14.80;9.43;;;4.50;99.90;;;;;;4933619;29;20494;-65
2023/04/13 02:57:24;;;;;;;14.40;10.20;;;4.50;99.90;;;;;;4934263;29;20834;-66
2023/04/13 02:59:53;;;;;;;15.17;10.70;;;4.50;99.90;;;;;;4934232;29;20468;-65
2023/04/13 03:02:26;;;;;;;17.10;9.50;;;4.50;99.90;;;;;;4933751;29;21092;-64
2023/04/13 03:04:55;;;;;;;16.17;10.53;;;4.50;99.90;;;;;;4925888;29;20484;-65
2023/04/13 03:07:27;;;;;;;17.63;10.10;;;4.50;99.90;;;;;;4934265;29;20493;-65
2023/04/13 03:09:55;;;;;;;16.70;10.17;;;4.50;99.90;;;;;;4934136;29;20472;-65
2023/04/13 03:12:25;;;;;;;16.63;10.27;;;4.50;99.90;;;;;;4939453;29;20472;-65
2023/04/13 03:14:53;;;;;;;15.23;10.83;;;4.40;99.90;;;;;;4923972;29;20471;-65
2023/04/13 03:17:22;;;;;;;15.43;9.87;;;4.50;99.90;;;;;;4930902;29;20477;-66
2023/04/13 03:19:52;;;;;;;15.47;10.20;;;4.50;99.90;;;;;;4916336;29;20457;-65
2023/04/13 03:22:23;;;;;;;13.73;9.60;;;4.50;99.90;;;;;;4930862;29;20500;-65
2023/04/13 03:24:51;;;;;;;13.33;9.83;;;4.50;99.90;;;;;;4916274;29;20468;-65
2023/04/13 03:27:28;;;;;;;16.90;10.33;;;4.60;99.90;;;;;;4914852;29;20472;-65
2023/04/13 03:29:56;;;;;;;15.50;10.47;;;4.50;99.90;;;;;;4930874;29;20469;-65
2023/04/13 03:32:26;;;;;;;19.00;10.40;;;4.50;99.90;;;;;;4936434;29;20480;-65
2023/04/13 03:35:01;;;;;;;18.27;10.43;;;4.50;99.90;;;;;;4925823;29;20475;-65
2023/04/13 03:37:31;;;;;;;13.63;9.90;;;4.50;99.90;;;;;;4933739;29;20471;-65
2023/04/13 03:40:10;;;;;;;12.93;9.57;;;4.50;99.90;;;;;;4933839;29;20491;-65
2023/04/13 03:42:46;;;;;;;17.50;9.97;;;4.50;99.90;;;;;;4939571;29;20238;-65
2023/04/13 03:45:14;;;;;;;14.37;9.90;;;4.40;99.90;;;;;;4933730;29;20942;-65
2023/04/13 03:47:43;;;;;;;14.50;9.50;;;4.40;99.90;;;;;;4921856;29;21050;-65
2023/04/13 03:50:12;;;;;;;16.90;10.23;;;4.40;99.90;;;;;;4915076;29;20315;-65
2023/04/13 03:52:41;;;;;;;14.30;10.23;;;4.40;99.90;;;;;;4940213;29;20251;-65
2023/04/13 03:55:09;;;;;;;14.00;9.20;;;4.40;99.90;;;;;;4935038;29;20947;-65
2023/04/13 03:57:39;;;;;;;16.90;9.67;;;4.40;99.90;;;;;;4933738;29;20486;-66
2023/04/13 04:00:13;;;;;;;16.23;10.23;;;4.40;99.90;;;;;;4933651;29;20475;-65
2023/04/13 04:02:47;;;;;;;14.73;9.33;;;4.40;99.90;;;;;;4931656;29;20497;-65
2023/04/13 04:05:25;;;;;;;15.20;9.00;;;4.40;99.90;;;;;;4927473;29;20477;-63
2023/04/13 04:08:00;;;;;;;16.03;9.93;;;4.40;99.90;;;;;;4917866;29;20488;-66
2023/04/13 04:10:29;;;;;;;13.33;8.83;;;4.40;99.90;;;;;;4936443;29;20847;-65
2023/04/13 04:12:59;;;;;;;16.77;10.27;;;4.40;99.90;;;;;;4929758;29;20558;-66
2023/04/13 04:15:28;;;;;;;14.10;9.23;;;4.50;99.90;;;;;;4943652;29;20479;-66
2023/04/13 04:18:02;;;;;;;16.10;9.87;;;4.50;99.90;;;;;;4936912;29;20979;-65
2023/04/13 04:20:33;;;;;;;15.70;10.37;;;4.50;99.90;;;;;;4952735;29;20468;-66
2023/04/13 04:23:03;;;;;;;16.20;9.43;;;4.60;99.90;;;;;;4936736;29;20270;-66
2023/04/13 04:25:40;;;;;;;17.10;10.33;;;4.60;99.90;;;;;;4952719;29;20231;-66
2023/04/13 04:28:08;;;;;;;16.70;10.30;;;4.60;99.90;;;;;;4938080;29;20322;-66
2023/04/13 04:30:36;;;;;;;17.33;9.97;;;4.60;99.90;;;;;;4952162;29;20903;-66
2023/04/13 04:33:06;;;;;;;16.87;9.63;;;4.60;99.90;;;;;;4936513;29;20467;-66
2023/04/13 04:35:42;;;;;;;14.23;9.60;;;4.70;99.90;;;;;;4928626;29;21050;-66
2023/04/13 04:38:10;;;;;;;17.63;10.90;;;4.70;99.90;;;;;;4933510;29;20507;-66
2023/04/13 04:40:43;;;;;;;14.60;10.47;;;4.70;99.90;;;;;;4922545;29;20830;-65
2023/04/13 04:43:14;;;;;;;14.27;9.77;;;4.70;99.90;;;;;;4939110;29;20506;-66
2023/04/13 04:45:50;;;;;;;17.73;10.40;;;4.80;99.90;;;;;;4938165;29;20471;-66
2023/04/13 04:48:19;;;;;;;14.40;9.60;;;4.80;99.90;;;;;;4947198;29;20843;-66
2023/04/13 04:50:51;;;;;;;14.67;9.90;;;4.80;99.90;;;;;;4937264;29;20863;-66
2023/04/13 04:53:20;;;;;;;16.20;9.77;;;4.80;99.90;;;;;;4952256;29;20526;-66
2023/04/13 04:55:48;;;;;;;15.23;9.83;;;4.80;99.90;;;;;;4952108;29;20463;-66
2023/04/13 04:58:28;;;;;;;18.37;10.73;;;4.90;99.90;;;;;;4936043;29;20479;-66
2023/04/13 05:00:57;;;;;;;18.40;10.57;;;4.90;99.90;;;;;;4935765;29;20510;-66
2023/04/13 05:03:25;;;;;;;17.67;10.30;;;5.00;99.90;;;;;;4935653;29;20520;-65
2023/04/13 05:06:05;;;;;;;15.80;10.63;;;5.00;99.90;;;;;;4935684;29;20231;-66
2023/04/13 05:08:34;;;;;;;14.73;10.80;;;5.00;99.90;;;;;;4951828;28;20237;-66
2023/04/13 05:11:06;;;;;;;17.50;10.20;;;5.10;99.90;;;;;;4929266;29;20965;-65
2023/04/13 05:13:34;;;;;;;14.57;9.50;;;5.10;99.90;;;;;;4928835;29;20495;-66
2023/04/13 05:16:16;;;;;;;15.00;10.23;;;5.10;99.90;;;;;;4935669;29;20239;-66
2023/04/13 05:18:47;;;;;;;16.90;10.00;;;5.10;99.90;;;;;;4952466;28;20319;-66
2023/04/13 05:21:34;;;;;;;12.47;9.47;;;5.20;99.90;;;;;;4928004;29;20540;-65
2023/04/13 05:24:03;;;;;;;16.00;10.07;;;5.20;99.90;;;;;;4941086;29;20234;-66
2023/04/13 05:26:31;;;;;;;16.13;9.80;;;5.30;99.90;;;;;;4943644;29;20485;-64
2023/04/13 05:29:01;;;;;;;13.93;9.87;;;5.30;99.90;;;;;;4935781;29;20227;-55
2023/04/13 05:31:34;;;;;;;15.00;9.70;;;5.30;99.90;;;;;;4932279;29;20264;-53
2023/04/13 05:34:03;;;;;;;14.63;10.13;;;5.30;99.90;;;;;;4913152;29;20549;-55
2023/04/13 05:36:32;;;;;;;13.10;9.70;;;5.30;99.90;;;;;;4912188;29;20479;-54
2023/04/13 05:39:06;;;;;;;13.87;9.27;;;5.30;99.90;;;;;;4929772;29;20610;-55
2023/04/13 05:41:34;;;;;;;12.97;9.03;;;5.30;99.90;;;;;;4913939;29;20232;-54
2023/04/13 05:44:03;;;;;;;13.17;9.13;;;5.40;99.90;;;;;;4929568;29;20735;-55
2023/04/13 05:46:33;;;;;;;16.07;9.70;;;5.40;99.90;;;;;;4926598;29;20817;-53
2023/04/13 05:49:05;;;;;;;13.20;10.17;;;5.40;99.90;;;;;;4910510;29;20231;-54
2023/04/13 05:51:34;;;;;;;14.53;8.77;;;5.40;99.90;;;;;;4909356;29;20257;-55
2023/04/13 05:54:02;;;;;;;13.30;8.50;;;5.40;99.90;;;;;;4915140;29;20220;-54
2023/04/13 05:56:33;;;;;;;13.23;9.03;;;5.50;99.90;;;;;;4911789;29;20479;-53
2023/04/13 05:59:02;;;;;;;12.20;8.63;;;5.50;99.90;;;;;;4931833;29;21038;-55
2023/04/13 06:01:30;;;;;;;13.60;9.00;;;5.50;99.90;;;;;;4926766;29;20236;-54
2023/04/13 06:03:59;;;;;;;13.27;9.73;;;5.50;99.90;;;;;;4942271;29;20501;-56
2023/04/13 06:06:29;;;;;;;11.90;8.73;;;5.50;99.90;;;;;;4927270;29;20584;-54
2023/04/13 06:08:57;;;;;;;14.37;8.80;;;5.60;99.90;;;;;;4934948;29;20794;-54
2023/04/13 06:11:26;;;;;;;13.57;8.90;;;5.60;99.90;;;;;;4935192;29;20718;-55
2023/04/13 06:13:56;;;;;;;13.50;9.40;;;5.70;99.90;;;;;;4935968;29;20563;-55
2023/04/13 06:16:27;;;;;;;14.00;9.13;;;5.70;99.90;;;;;;4940099;29;20269;-56
2023/04/13 06:18:55;;;;;;;13.70;8.60;;;5.70;99.90;;;;;;4936769;28;20228;-53
2023/04/13 06:21:27;;;;;;;14.73;9.03;;;5.80;99.90;;;;;;4934364;29;20227;-55
2023/04/13 06:23:55;;;;;;;11.50;7.87;;;5.80;99.90;;;;;;4934357;29;20665;-54
2023/04/13 06:26:32;;;;;;;12.63;7.90;;;5.80;99.90;;;;;;4934281;29;20227;-53
2023/04/13 06:29:02;;;;;;;13.60;8.53;;;5.90;99.90;;;;;;4934020;29;20314;-54
2023/04/13 06:31:39;;;;;;;12.80;8.17;;;5.90;99.90;;;;;;4934109;29;20235;-53
2023/04/13 06:34:12;;;;;;;10.97;7.63;;;5.90;99.90;;;;;;4940774;29;20224;-54
2023/04/13 06:36:41;;;;;;;12.77;8.00;;;6.00;99.90;;;;;;4931068;29;20277;-54
2023/04/13 06:39:12;;;;;;;10.23;7.53;;;6.10;99.90;;;;;;4934069;29;20231;-55
2023/04/13 06:41:46;;;;;;;10.30;7.27;;;6.10;99.90;;;;;;4935251;29;20236;-54
2023/04/13 06:44:23;;;;;;;10.93;7.40;;;6.10;99.90;;;;;;4934173;29;20710;-55
2023/04/13 06:46:53;;;;;;;7.80;5.87;;;6.20;99.90;;;;;;4941073;29;20331;-55
2023/04/13 06:49:23;;;;;;;8.80;6.07;;;6.20;99.90;;;;;;4945111;29;20723;-54
2023/04/13 06:51:51;;;;;;;13.30;6.60;;;6.20;99.90;;;;;;4949909;29;20340;-54
2023/04/13 06:54:19;;;;;;;8.70;5.73;;;6.30;99.90;;;;;;4934081;29;20287;-55
2023/04/13 06:56:52;;;;;;;9.67;6.47;;;6.30;99.90;;;;;;4934043;29;20224;-55
2023/04/13 06:59:20;;;;;;;9.43;5.83;;;6.30;99.90;;;;;;4933965;29;20235;-55
2023/04/13 07:01:49;;;;;;;9.63;6.03;;;6.40;99.90;;;;;;4936230;29;20249;-53
2023/04/13 07:04:18;;;;;;;8.30;5.40;;;6.40;99.90;;;;;;4936850;29;20237;-56
2023/04/13 07:06:47;;;;;;;6.43;5.17;;;6.40;99.90;;;;;;4933764;29;20223;-55
2023/04/13 07:09:16;;;;;;;6.50;5.03;;;6.50;99.90;;;;;;4933290;29;20224;-54
2023/04/13 07:11:44;;;;;;;9.13;4.97;;;6.50;99.90;;;;;;4933847;29;20648;-55
2023/04/13 07:14:14;;;;;;;8.30;4.87;;;6.60;99.90;;;;;;4933796;29;20274;-55
2023/04/13 07:16:42;;;;;;;7.27;4.73;;;6.70;99.90;;;;;;4949591;29;20588;-55
2023/04/13 07:19:12;;;;;;;6.47;4.77;;;6.70;99.90;;;;;;4929889;29;20674;-54
2023/04/13 07:21:40;;;;;;;4.97;4.30;;;6.70;99.90;;;;;;4934626;29;20258;-53
2023/04/13 07:24:09;;;;;;;6.20;4.40;;;6.70;99.90;;;;;;4932573;29;20330;-54
2023/04/13 07:26:40;;;;;;;6.57;3.93;;;6.80;99.90;;;;;;4949471;29;20236;-55
2023/04/13 07:29:12;;;;;;;7.20;4.57;;;6.90;99.90;;;;;;4933198;29;20227;-53
2023/04/13 07:31:44;;;;;;;6.13;4.30;;;7.00;99.90;;;;;;4930888;29;20738;-53
2023/04/13 07:34:14;;;;;;;6.47;4.50;;;7.00;99.90;;;;;;4936430;29;20285;-54
2023/04/13 07:36:45;;;;;;;6.77;4.63;;;7.10;99.90;;;;;;4933482;29;20232;-55
2023/04/13 07:39:17;;;;;;;6.60;4.70;;;7.20;99.90;;;;;;4933746;29;20236;-55
2023/04/13 07:41:48;;;;;;;7.60;4.57;;;7.10;99.90;;;;;;4936339;29;20283;-55
2023/04/13 07:44:22;;;;;;;5.73;4.63;;;7.10;99.90;;;;;;4937181;29;20227;-54
2023/04/13 07:46:52;;;;;;;7.13;4.67;;;7.20;99.90;;;;;;4936250;29;20224;-55
2023/04/13 07:49:22;;;;;;;5.87;4.20;;;7.20;99.90;;;;;;4934952;29;20275;-54
2023/04/13 07:51:53;;;;;;;5.23;3.90;;;7.30;99.90;;;;;;4931382;29;20323;-55
2023/04/13 07:54:22;;;;;;;6.30;4.13;;;7.40;99.90;;;;;;4937327;29;20236;-55
2023/04/13 07:56:51;;;;;;;4.30;3.90;;;7.70;99.90;;;;;;4937386;29;20232;-54
2023/04/13 07:59:24;;;;;;;4.73;3.87;;;7.90;99.90;;;;;;4933402;29;20233;-53
2023/04/13 08:01:53;;;;;;;9.23;4.03;;;8.20;99.90;;;;;;4919795;29;20268;-53
2023/04/13 08:04:23;;;;;;;4.03;3.43;;;8.60;99.90;;;;;;4936839;29;20251;-55
2023/04/13 08:06:52;;;;;;;6.50;3.60;;;8.80;99.90;;;;;;4921511;29;20723;-54
2023/04/13 08:09:21;;;;;;;4.67;3.40;;;9.10;99.90;;;;;;4936872;29;20319;-53
2023/04/13 08:11:50;;;;;;;4.67;3.30;;;9.40;99.90;;;;;;4936970;29;20239;-53
2023/04/13 08:14:18;;;;;;;3.80;3.10;;;9.60;99.90;;;;;;4938361;29;20224;-54
2023/04/13 08:16:49;;;;;;;3.73;3.17;;;9.50;99.90;;;;;;4929696;29;20237;-53
2023/04/13 08:19:18;;;;;;;4.80;3.00;;;9.40;99.90;;;;;;4928873;29;20232;-53
2023/04/13 08:21:51;;;;;;;3.37;2.60;;;9.60;99.90;;;;;;4936788;29;20230;-53
2023/04/13 08:24:20;;;;;;;5.40;3.17;;;9.50;99.90;;;;;;4936676;29;20311;-54
2023/04/13 08:26:48;;;;;;;3.97;2.80;;;9.40;99.90;;;;;;4937896;29;20252;-55
2023/04/13 08:29:17;;;;;;;3.87;2.63;;;9.40;99.90;;;;;;4936759;29;20237;-53
2023/04/13 08:31:46;;;;;;;4.33;2.70;;;9.30;99.90;;;;;;4937338;29;20328;-53
2023/04/13 08:34:14;;;;;;;6.50;3.70;;;9.40;99.90;;;;;;4937993;29;20229;-54
2023/04/13 08:36:44;;;;;;;3.53;3.03;;;9.20;99.90;;;;;;4949740;29;20229;-55
2023/04/13 08:39:15;;;;;;;3.43;2.80;;;8.90;99.90;;;;;;4945077;29;20225;-54
2023/04/13 08:41:45;;;;;;;4.10;2.70;;;8.70;99.90;;;;;;4952301;29;20747;-56
2023/04/13 08:44:16;;;;;;;4.33;3.17;;;8.80;99.90;;;;;;4936301;29;20230;-54
2023/04/13 08:46:47;;;;;;;5.43;2.83;;;8.90;99.90;;;;;;4934917;29;20674;-53
2023/04/13 08:49:24;;;;;;;3.10;2.73;;;9.30;99.90;;;;;;4925165;29;20705;-53
2023/04/13 08:52:15;;;;;;;3.27;2.60;;;9.70;99.90;;;;;;4916557;29;20229;-53
2023/04/13 08:54:49;;;;;;;3.13;2.87;;;9.60;99.90;;;;;;4917077;29;20236;-52
2023/04/13 08:57:28;;;;;;;4.70;2.97;;;9.60;99.90;;;;;;4916997;29;20284;-52
2023/04/13 08:59:59;;;;;;;4.17;2.60;;;9.60;99.90;;;;;;4917316;29;20225;-55
2023/04/13 09:02:34;;;;;;;2.70;2.50;;;9.60;99.90;;;;;;4918817;29;20232;-55
2023/04/13 09:05:14;;;;;;;3.33;2.60;;;9.80;99.90;;;;;;4935007;29;20238;-54
2023/04/13 09:07:52;;;;;;;3.60;2.57;;;9.80;99.90;;;;;;4926987;29;20243;-53
2023/04/13 09:10:24;;;;;;;4.13;2.80;;;9.80;99.90;;;;;;4919827;29;20794;-51
2023/04/13 09:12:52;;;;;;;3.40;2.60;;;9.80;99.90;;;;;;4921418;29;20243;-52
2023/04/13 09:15:21;;;;;;;3.73;2.80;;;9.70;99.90;;;;;;4922897;29;20220;-55
2023/04/13 09:18:08;;;;;;;4.13;2.70;;;9.80;99.90;;;;;;4939487;28;20231;-52
2023/04/13 09:20:40;;;;;;;3.13;2.67;;;9.90;99.90;;;;;;4919903;29;20230;-52
2023/04/13 09:23:15;;;;;;;3.07;2.50;;;9.80;99.90;;;;;;4923051;29;20240;-52
2023/04/13 09:25:45;;;;;;;4.53;3.20;;;9.70;99.90;;;;;;4922015;29;20240;-55
2023/04/13 09:28:18;;;;;;;4.03;2.80;;;9.70;99.90;;;;;;4922579;29;20250;-55
2023/04/13 09:30:46;;;;;;;3.50;2.33;;;10.40;99.90;;;;;;4920437;29;20897;-53
2023/04/13 09:33:15;;;;;;;3.10;2.37;;;10.60;99.90;;;;;;4922496;29;20573;-51
2023/04/13 09:35:43;;;;;;;4.07;2.77;;;10.50;99.90;;;;;;4921507;29;20972;-53
2023/04/13 09:38:15;;;;;;;4.23;2.60;;;10.30;99.90;;;;;;4920869;29;20237;-49
2023/04/13 09:40:53;;;;;;;5.37;2.90;;;10.30;99.90;;;;;;4918657;29;20231;-54
2023/04/13 09:43:21;;;;;;;4.93;3.07;;;10.20;99.90;;;;;;4920004;29;20715;-54
2023/04/13 09:45:50;;;;;;;4.03;2.60;;;10.10;99.90;;;;;;4920358;29;20701;-53
2023/04/13 09:48:20;;;;;;;4.73;3.27;;;10.00;99.90;;;;;;4920381;29;20240;-54
2023/04/13 09:50:58;;;;;;;4.23;3.07;;;10.10;99.90;;;;;;4918633;29;20233;-52
2023/04/13 09:53:28;;;;;;;4.80;2.80;;;10.30;99.90;;;;;;4919896;29;20270;-55
2023/04/13 09:56:00;;;;;;;5.10;2.60;;;10.30;99.90;;;;;;4920276;29;20243;-53
2023/04/13 09:58:30;;;;;;;2.77;2.40;;;10.40;99.90;;;;;;4919283;29;20246;-52
2023/04/13 10:00:59;;;;;;;4.17;2.80;;;10.50;99.90;;;;;;4916528;29;20245;-54
2023/04/13 10:03:28;;;;;;;4.50;2.70;;;10.80;99.90;;;;;;4919311;29;20241;-56
2023/04/13 10:05:59;;;;;;;5.27;3.00;;;10.80;99.90;;;;;;4919825;29;20266;-55
2023/04/13 10:08:28;;;;;;;3.37;2.60;;;10.80;99.90;;;;;;4919802;29;20229;-56
2023/04/13 10:11:03;;;;;;;4.30;3.20;;;10.70;99.90;;;;;;4917947;29;20600;-53
2023/04/13 10:13:36;;;;;;;3.23;2.77;;;10.70;99.90;;;;;;4920087;29;20596;-52
2023/04/13 10:16:21;;;;;;;4.20;2.90;;;10.90;99.90;;;;;;4921775;29;20223;-54
2023/04/13 10:18:59;;;;;;;2.90;2.40;;;11.70;99.90;;;;;;4921899;29;20242;-53
2023/04/13 10:21:32;;;;;;;5.13;2.70;;;12.00;99.90;;;;;;4917143;29;20232;-52
2023/04/13 10:24:01;;;;;;;2.90;2.60;;;12.00;99.90;;;;;;4919519;29;20257;-54
2023/04/13 10:26:31;;;;;;;2.97;2.20;;;11.90;99.90;;;;;;4919125;29;20804;-53
2023/04/13 10:29:00;;;;;;;3.00;2.20;;;12.30;99.90;;;;;;4919198;29;20237;-55
2023/04/13 10:31:37;;;;;;;2.77;2.23;;;12.50;99.90;;;;;;4918496;29;20236;-51
2023/04/13 10:34:06;;;;;;;4.37;2.07;;;12.60;99.90;;;;;;4921578;29;20270;-56
2023/04/13 10:36:39;;;;;;;2.43;2.07;;;12.60;99.90;;;;;;4921655;29;20633;-53
2023/04/13 10:39:07;;;;;;;3.87;2.50;;;12.70;99.90;;;;;;4921704;29;20229;-55
2023/04/13 10:41:37;;;;;;;3.23;2.50;;;12.60;99.90;;;;;;4919424;29;20728;-52
2023/04/13 10:44:06;;;;;;;3.63;2.70;;;12.70;99.90;;;;;;4921596;29;20225;-53
2023/04/13 10:46:35;;;;;;;4.80;2.70;;;12.40;99.90;;;;;;4919452;29;20807;-54
2023/04/13 10:49:05;;;;;;;4.33;3.00;;;12.20;99.90;;;;;;4919212;29;20239;-53
2023/04/13 10:51:40;;;;;;;4.17;2.57;;;12.00;99.90;;;;;;4917476;29;20267;-54
2023/04/13 10:54:10;;;;;;;4.90;2.70;;;12.00;99.90;;;;;;4918479;29;20740;-52
2023/04/13 10:56:40;;;;;;;5.23;2.90;;;11.80;99.90;;;;;;4918350;29;20237;-53
2023/04/13 10:59:08;;;;;;;4.07;2.80;;;11.80;99.90;;;;;;4918895;29;20567;-54
2023/04/13 11:01:39;;;;;;;3.67;2.47;;;11.90;99.90;;;;;;4916532;29;20516;-52
2023/04/13 11:04:08;;;;;;;2.50;2.30;;;12.00;99.90;;;;;;4917932;29;20297;-52
2023/04/13 11:06:43;;;;;;;3.23;2.30;;;11.80;99.90;;;;;;4917512;29;20812;-53
2023/04/13 11:09:11;;;;;;;2.90;2.53;;;12.20;99.90;;;;;;4917771;29;20598;-55
2023/04/13 11:11:51;;;;;;;2.53;2.20;;;12.50;99.90;;;;;;4916357;29;20231;-51
2023/04/13 11:14:22;;;;;;;2.33;2.13;;;12.60;99.90;;;;;;4919366;29;20582;-53
2023/04/13 11:16:50;;;;;;;4.33;2.60;;;12.50;99.90;;;;;;4922430;29;21338;-56
2023/04/13 11:19:24;;;;;;;2.67;2.17;;;12.90;99.90;;;;;;4922676;29;20263;-54
2023/04/13 11:21:56;;;;;;;2.97;2.67;;;12.90;99.90;;;;;;4920783;29;20263;-52
2023/04/13 11:24:32;;;;;;;5.40;3.43;;;13.20;99.90;;;;;;4922626;29;20241;-54
2023/04/13 11:27:02;;;;;;;2.80;2.60;;;13.20;99.90;;;;;;4922467;29;20277;-54
2023/04/13 11:29:30;;;;;;;3.27;2.57;;;12.90;99.90;;;;;;4921881;29;20242;-53
2023/04/13 11:31:58;;;;;;;5.07;2.67;;;12.50;99.90;;;;;;4919310;29;20230;-54
2023/04/13 11:34:27;;;;;;;4.10;2.80;;;12.20;99.90;;;;;;4923096;29;20306;-53
2023/04/13 11:37:04;;;;;;;3.57;2.50;;;12.00;99.90;;;;;;4924028;29;20242;-53
2023/04/13 11:39:37;;;;;;;3.13;2.57;;;12.10;99.90;;;;;;4923539;29;20242;-56
2023/04/13 11:42:07;;;;;;;4.83;3.33;;;11.90;99.90;;;;;;4922534;29;20317;-53
2023/04/13 11:44:36;;;;;;;3.67;2.97;;;11.80;99.90;;;;;;4924341;29;20269;-52
2023/04/13 11:47:04;;;;;;;4.63;3.00;;;11.90;99.90;;;;;;4924674;29;20995;-52
2023/04/13 11:49:33;;;;;;;3.93;2.70;;;11.90;99.90;;;;;;4923648;29;20260;-51
2023/04/13 11:52:02;;;;;;;3.53;2.53;;;11.90;99.90;;;;;;4922736;29;20239;-55
2023/04/13 11:54:31;;;;;;;2.70;2.50;;;12.00;99.90;;;;;;4922561;29;20238;-54
2023/04/13 11:57:00;;;;;;;3.43;2.93;;;12.20;99.90;;;;;;4922035;29;20230;-53
2023/04/13 11:59:29;;;;;;;4.17;2.53;;;12.30;99.90;;;;;;4921598;29;20322;-54
2023/04/13 12:01:58;;;;;;;4.60;3.00;;;12.30;99.90;;;;;;4918541;29;20243;-53
2023/04/13 12:04:39;;;;;;;4.50;2.70;;;12.40;99.90;;;;;;4921784;29;20250;-53
2023/04/13 12:07:12;;;;;;;3.33;2.63;;;12.20;99.90;;;;;;4923912;29;20246;-53
2023/04/13 12:09:43;;;;;;;4.63;3.10;;;12.00;99.90;;;;;;4922357;29;20242;-51
2023/04/13 12:12:25;;;;;;;3.53;2.80;;;12.20;99.90;;;;;;4923001;29;20237;-53
2023/04/13 12:14:59;;;;;;;5.00;2.80;;;12.40;99.90;;;;;;4922145;29;20234;-55
2023/04/13 12:17:31;;;;;;;4.27;2.57;;;12.60;99.90;;;;;;4921419;29;20231;-53
2023/04/13 12:20:02;;;;;;;3.20;2.70;;;12.50;99.90;;;;;;4918814;29;20299;-53
2023/04/13 12:22:37;;;;;;;3.73;2.50;;;12.80;99.90;;;;;;4935915;29;21270;-52
2023/04/13 12:25:23;;;;;;;3.77;2.33;;;12.90;99.90;;;;;;4922308;29;20263;-54
2023/04/13 12:27:53;;;;;;;3.23;2.60;;;13.00;99.90;;;;;;4920790;29;20639;-56
2023/04/13 12:30:23;;;;;;;4.37;2.73;;;12.70;99.90;;;;;;4918853;29;20840;-52
2023/04/13 12:32:52;;;;;;;3.23;2.70;;;12.10;99.90;;;;;;4921614;29;20229;-53
2023/04/13 12:35:21;;;;;;;3.00;2.63;;;11.90;99.90;;;;;;4923278;29;20237;-54
2023/04/13 12:37:51;;;;;;;5.17;3.10;;;11.60;99.90;;;;;;4924063;29;20240;-54
2023/04/13 12:40:19;;;;;;;3.10;2.90;;;11.40;99.90;;;;;;4921201;29;20627;-55
2023/04/13 12:42:49;;;;;;;3.43;3.03;;;11.30;99.90;;;;;;4923680;29;20744;-54
2023/04/13 12:45:17;;;;;;;3.50;3.20;;;11.40;99.90;;;;;;4923523;29;20238;-53
2023/04/13 12:47:46;;;;;;;3.47;3.17;;;11.40;99.90;;;;;;4923576;29;20249;-52
2023/04/13 12:50:14;;;;;;;4.20;3.80;;;11.50;99.90;;;;;;4920616;29;20244;-54
2023/04/13 12:52:44;;;;;;;3.83;3.53;;;11.50;99.90;;;;;;4923108;29;20242;-53
2023/04/13 12:55:12;;;;;;;4.97;3.80;;;11.70;99.90;;;;;;4923489;29;20234;-56
2023/04/13 12:57:40;;;;;;;4.10;3.70;;;11.60;99.90;;;;;;4923028;29;20239;-56
2023/04/13 13:00:10;;;;;;;5.43;3.50;;;11.50;99.90;;;;;;4920290;29;20650;-54
2023/04/13 13:02:39;;;;;;;3.80;3.40;;;11.50;99.90;;;;;;4921388;29;20242;-55
2023/04/13 13:05:09;;;;;;;4.97;4.03;;;11.50;99.90;;;;;;4920715;29;20333;-55
2023/04/13 13:07:37;;;;;;;4.10;3.80;;;11.60;99.90;;;;;;4920664;29;20754;-56